Terminal Aerodrome Forecast
Issued by NWS

Home | Current Version | Previous Version | Text Only | Print | Product List | Glossary On
Versions: 1 2 3 4 5 6 7 8 9 10 11 12
000
FTUS44 KEPZ 021732
TAFTCS
TAF
KTCS 021732Z 0218/0318 10005KT P6SM FEW080
     FM022000 16011KT P6SM SCT080
     FM030500 30006KT P6SM FEW080
     FM031200 VRB04KT P6SM SKC=

USA.gov is the U.S. government's official web portal to all federal, state and local government web resources and services.